Time;durP1;ratioP1;P1;durP2;ratioP2;P2;SDS_P1;SDS_P2;PMS_P1;PMS_P2;Temp;Humidity;BMP_temperature;BMP_pressure;BME280_temperature;BME280_humidity;BME280_pressure;Samples;Min_cycle;Max_cycle;Signal;HPM_P1;HPM_P2
2024/04/17 00:01:21;;;;;;;4.35;0.03;;;4.90;99.90;;;;;;5570352;25;20420;-77
2024/04/17 00:03:47;;;;;;;4.45;0.10;;;4.80;99.90;;;;;;5570927;25;20016;-77
2024/04/17 00:06:13;;;;;;;6.50;0.15;;;4.80;99.90;;;;;;5559470;25;20044;-78
2024/04/17 00:08:38;;;;;;;8.18;0.20;;;4.80;99.90;;;;;;5567952;25;20003;-77
2024/04/17 00:11:04;;;;;;;2.65;0.10;;;4.70;99.90;;;;;;5570285;25;20061;-77
2024/04/17 00:13:31;;;;;;;4.43;0.52;;;4.70;99.90;;;;;;5570456;25;20057;-77
2024/04/17 00:16:01;;;;;;;3.53;0.22;;;4.70;99.90;;;;;;5569862;25;20028;-77
2024/04/17 00:18:28;;;;;;;4.72;0.20;;;4.70;99.90;;;;;;5569236;25;20440;-78
2024/04/17 00:20:54;;;;;;;3.00;0.43;;;4.70;99.90;;;;;;5568901;25;20072;-77
2024/04/17 00:23:20;;;;;;;2.67;0.10;;;4.60;99.90;;;;;;5602179;25;19992;-77
2024/04/17 00:25:46;;;;;;;7.63;0.55;;;4.60;99.90;;;;;;5574255;25;19995;-78
2024/04/17 00:28:11;;;;;;;5.40;0.10;;;4.50;99.90;;;;;;5608143;25;19989;-77
2024/04/17 00:30:37;;;;;;;3.28;0.00;;;4.50;99.90;;;;;;5573800;25;19985;-77
2024/04/17 00:33:03;;;;;;;4.35;0.32;;;4.60;99.90;;;;;;5607528;25;19991;-77
2024/04/17 00:35:28;;;;;;;4.28;0.00;;;4.60;99.90;;;;;;5574073;25;20431;-78
2024/04/17 00:37:55;;;;;;;5.60;0.35;;;4.50;99.90;;;;;;5574117;25;19991;-77
2024/04/17 00:40:21;;;;;;;4.05;0.00;;;4.50;99.90;;;;;;5586772;25;20464;-77
2024/04/17 00:42:46;;;;;;;10.82;0.95;;;4.60;99.90;;;;;;5569879;25;20000;-77
2024/04/17 00:45:12;;;;;;;6.20;0.65;;;4.50;99.90;;;;;;5569666;25;19997;-78
2024/04/17 00:47:38;;;;;;;4.45;0.35;;;4.60;99.90;;;;;;5536622;25;20345;-77
2024/04/17 00:50:06;;;;;;;6.03;0.90;;;4.60;99.90;;;;;;5536556;25;20443;-78
2024/04/17 00:52:35;;;;;;;6.87;0.10;;;4.60;99.90;;;;;;5568753;25;19993;-77
2024/04/17 00:55:02;;;;;;;5.40;0.40;;;4.70;99.90;;;;;;5537919;25;20005;-77
2024/04/17 00:57:31;;;;;;;5.70;0.52;;;4.80;99.90;;;;;;5575234;25;20340;-77
2024/04/17 00:59:57;;;;;;;;;;;4.70;99.90;;;;;;5536811;25;19996;-77
2024/04/17 01:02:22;;;;;;;3.75;0.10;;;4.90;99.90;;;;;;5567650;25;20382;-77
2024/04/17 01:04:48;;;;;;;5.05;0.10;;;5.00;99.90;;;;;;5569141;25;19996;-78
2024/04/17 01:07:14;;;;;;;2.97;0.10;;;5.20;99.90;;;;;;5568726;25;20056;-77
2024/04/17 01:09:39;;;;;;;16.25;0.80;;;5.20;99.90;;;;;;5568932;25;20064;-78
2024/04/17 01:12:05;;;;;;;8.43;0.20;;;5.30;99.90;;;;;;5559011;25;20067;-77
2024/04/17 01:14:31;;;;;;;8.48;0.57;;;5.40;99.90;;;;;;5535148;25;19989;-77
2024/04/17 01:16:56;;;;;;;7.85;0.47;;;5.60;99.90;;;;;;5535318;25;20007;-77
2024/04/17 01:19:23;;;;;;;6.43;0.80;;;5.70;99.90;;;;;;5536196;25;20037;-77
2024/04/17 01:21:48;;;;;;;4.53;0.20;;;5.80;99.90;;;;;;5535501;25;20469;-77
2024/04/17 01:24:14;;;;;;;2.63;0.20;;;5.80;99.90;;;;;;5535468;25;19989;-77
2024/04/17 01:26:39;;;;;;;6.90;0.10;;;5.90;99.90;;;;;;5536138;25;19992;-77
2024/04/17 01:29:05;;;;;;;5.15;0.25;;;5.90;99.90;;;;;;5557743;25;20440;-77
2024/04/17 01:31:30;;;;;;;3.95;0.10;;;5.90;99.90;;;;;;5572623;25;19991;-77
2024/04/17 01:33:56;;;;;;;4.40;0.10;;;6.00;99.90;;;;;;5572843;25;19984;-77
2024/04/17 01:36:22;;;;;;;2.58;0.77;;;6.00;99.90;;;;;;5606121;25;20514;-77
2024/04/17 01:38:47;;;;;;;5.50;0.10;;;6.00;99.90;;;;;;5571840;25;19991;-77
2024/04/17 01:41:14;;;;;;;3.00;0.20;;;6.00;99.90;;;;;;5571998;25;19999;-77
2024/04/17 01:43:39;;;;;;;1.52;0.20;;;6.00;99.90;;;;;;5588453;25;20388;-77
2024/04/17 01:46:05;;;;;;;5.18;0.38;;;6.00;99.90;;;;;;5568501;25;20004;-78
2024/04/17 01:48:30;;;;;;;0.85;0.00;;;6.00;99.90;;;;;;5533289;25;20329;-77
2024/04/17 01:50:56;;;;;;;0.93;0.00;;;6.60;99.90;;;;;;5534042;25;19996;-77
2024/04/17 01:53:21;;;;;;;3.30;0.38;;;6.00;99.90;;;;;;5534304;25;19988;-78
2024/04/17 01:55:47;;;;;;;1.10;0.10;;;6.00;99.90;;;;;;5535099;25;19984;-77
2024/04/17 01:58:12;;;;;;;4.90;0.30;;;6.00;99.90;;;;;;5534501;25;20451;-78
2024/04/17 02:00:38;;;;;;;1.42;0.05;;;6.00;99.90;;;;;;5575501;25;19997;-77
2024/04/17 02:03:05;;;;;;;2.08;0.00;;;6.00;99.90;;;;;;5570322;25;20044;-78
2024/04/17 02:05:31;;;;;;;1.27;0.13;;;6.00;99.90;;;;;;5604169;25;19992;-77
2024/04/17 02:07:56;;;;;;;2.13;0.55;;;6.00;99.90;;;;;;5604754;25;19999;-77
2024/04/17 02:10:22;;;;;;;3.30;0.10;;;6.00;99.90;;;;;;5604358;25;19992;-77
2024/04/17 02:12:48;;;;;;;1.35;0.08;;;5.90;99.90;;;;;;5604537;25;19988;-77
2024/04/17 02:15:14;;;;;;;2.38;0.17;;;6.00;99.90;;;;;;5604373;25;20367;-77
2024/04/17 02:17:39;;;;;;;3.85;0.00;;;6.00;99.90;;;;;;5581050;25;20011;-77
2024/04/17 02:20:06;;;;;;;3.53;0.28;;;6.00;99.90;;;;;;5604390;25;20041;-77
2024/04/17 02:22:32;;;;;;;4.85;0.30;;;6.00;99.90;;;;;;5604732;25;20035;-78
2024/04/17 02:24:57;;;;;;;1.80;0.15;;;6.00;99.90;;;;;;5603957;25;20037;-77
2024/04/17 02:27:23;;;;;;;1.48;0.43;;;6.00;99.90;;;;;;5604570;25;19996;-77
2024/04/17 02:29:51;;;;;;;1.10;0.00;;;6.00;99.90;;;;;;5604561;25;19996;-77
2024/04/17 02:32:17;;;;;;;1.58;0.10;;;6.00;99.90;;;;;;5603370;25;19996;-77
2024/04/17 02:34:43;;;;;;;4.40;0.25;;;6.00;99.90;;;;;;5604193;25;19995;-77
2024/04/17 02:37:09;;;;;;;0.77;0.10;;;6.10;99.90;;;;;;5603538;25;19999;-77
2024/04/17 02:39:35;;;;;;;0.40;0.00;;;6.60;99.90;;;;;;5603691;25;19998;-77
2024/04/17 02:42:01;;;;;;;1.80;0.45;;;6.10;99.90;;;;;;5604460;25;20016;-78
2024/04/17 02:44:27;;;;;;;1.10;0.00;;;8.00;99.90;;;;;;5603548;25;20335;-77
2024/04/17 02:46:52;;;;;;;0.55;0.10;;;6.20;99.90;;;;;;5603806;25;19988;-78
2024/04/17 02:49:18;;;;;;;2.85;0.15;;;7.50;99.90;;;;;;5592393;25;20440;-77
2024/04/17 02:51:46;;;;;;;3.72;0.10;;;6.20;99.90;;;;;;5532826;25;20004;-77
2024/04/17 02:54:11;;;;;;;3.42;0.00;;;6.20;99.90;;;;;;5565468;25;20068;-77
2024/04/17 02:56:38;;;;;;;2.50;0.00;;;6.20;99.90;;;;;;5565470;25;20452;-77
2024/04/17 02:59:03;;;;;;;2.03;0.00;;;6.20;99.90;;;;;;5565183;25;20024;-77
2024/04/17 03:01:31;;;;;;;2.15;0.10;;;6.20;99.90;;;;;;5565800;25;19996;-77
2024/04/17 03:03:57;;;;;;;0.98;0.00;;;6.20;99.90;;;;;;5564472;25;19999;-77
2024/04/17 03:06:22;;;;;;;2.03;0.00;;;6.10;99.90;;;;;;5563611;25;20001;-77
2024/04/17 03:08:48;;;;;;;1.85;0.00;;;6.10;99.90;;;;;;5531590;25;20391;-77
2024/04/17 03:11:14;;;;;;;0.30;0.00;;;7.60;99.90;;;;;;5564524;25;20015;-77
2024/04/17 03:13:39;;;;;;;0.00;0.00;;;6.70;99.90;;;;;;5564590;25;19997;-77
2024/04/17 03:16:05;;;;;;;3.28;0.77;;;6.20;99.90;;;;;;5564754;25;20008;-77
2024/04/17 03:18:32;;;;;;;1.55;0.00;;;6.10;99.90;;;;;;5534784;25;19996;-77
2024/04/17 03:21:04;;;;;;;0.70;0.00;;;6.10;99.90;;;;;;5534537;25;20000;-77
2024/04/17 03:23:30;;;;;;;1.70;0.10;;;6.20;99.90;;;;;;5535174;25;20003;-77
2024/04/17 03:25:56;;;;;;;0.10;0.10;;;6.20;99.90;;;;;;5566715;25;20000;-78
2024/04/17 03:28:22;;;;;;;3.20;0.00;;;6.20;99.90;;;;;;5605108;25;19991;-77
2024/04/17 03:30:48;;;;;;;2.90;0.35;;;6.20;99.90;;;;;;5572554;25;20450;-79
2024/04/17 03:33:13;;;;;;;2.05;0.10;;;6.40;99.90;;;;;;5605922;25;20003;-79
2024/04/17 03:35:39;;;;;;;1.40;0.00;;;6.20;99.90;;;;;;5607040;25;20007;-79
2024/04/17 03:38:04;;;;;;;1.92;0.10;;;6.20;99.90;;;;;;5605889;25;20321;-78
2024/04/17 03:40:30;;;;;;;3.45;0.38;;;6.30;99.90;;;;;;5578309;25;19993;-76
2024/04/17 03:42:56;;;;;;;2.47;0.20;;;6.20;99.90;;;;;;5535029;25;20056;-77
2024/04/17 03:45:21;;;;;;;0.68;0.17;;;6.20;99.90;;;;;;5567002;25;19999;-79
2024/04/17 03:47:47;;;;;;;5.82;0.70;;;6.20;99.90;;;;;;5567587;25;20060;-79
2024/04/17 03:50:13;;;;;;;3.97;0.28;;;8.40;99.90;;;;;;5535062;25;19999;-79
2024/04/17 03:52:38;;;;;;;0.85;0.10;;;6.20;99.90;;;;;;5567160;25;20000;-80
2024/04/17 03:55:04;;;;;;;2.38;0.00;;;6.10;99.90;;;;;;5583906;25;20071;-79
2024/04/17 03:57:30;;;;;;;3.80;0.00;;;6.10;99.90;;;;;;5574354;25;20483;-78
2024/04/17 03:59:56;;;;;;;3.90;0.00;;;6.10;99.90;;;;;;5566731;25;19999;-79
2024/04/17 04:02:22;;;;;;;4.07;0.00;;;6.10;99.90;;;;;;5567768;25;20000;-79
2024/04/17 04:04:47;;;;;;;1.52;0.05;;;6.10;99.90;;;;;;5532851;25;20004;-79
2024/04/17 04:07:13;;;;;;;5.18;0.22;;;6.10;99.90;;;;;;5567093;25;19993;-79
2024/04/17 04:09:39;;;;;;;3.38;0.17;;;6.10;99.90;;;;;;5534300;25;19988;-78
2024/04/17 04:12:05;;;;;;;0.98;0.00;;;6.00;99.90;;;;;;5582576;25;20011;-79
2024/04/17 04:14:31;;;;;;;4.25;0.00;;;6.00;99.90;;;;;;5570176;25;20003;-78
2024/04/17 04:16:56;;;;;;;5.97;0.00;;;6.00;99.90;;;;;;5571291;25;20056;-79
2024/04/17 04:19:22;;;;;;;2.60;0.00;;;6.00;99.90;;;;;;5604981;25;19992;-79
2024/04/17 04:21:47;;;;;;;4.75;0.20;;;6.00;99.90;;;;;;5571947;25;20439;-78
2024/04/17 04:24:13;;;;;;;3.42;0.30;;;5.90;99.90;;;;;;5572465;25;19988;-79
2024/04/17 04:26:39;;;;;;;3.85;0.00;;;5.80;99.90;;;;;;5604917;25;19996;-79
2024/04/17 04:29:04;;;;;;;1.40;0.00;;;5.80;99.90;;;;;;5590918;25;20000;-79
2024/04/17 04:31:31;;;;;;;3.22;0.00;;;5.70;99.90;;;;;;5575739;25;20365;-79
2024/04/17 04:33:56;;;;;;;1.58;0.17;;;5.60;99.90;;;;;;5533095;25;19988;-79
2024/04/17 04:36:22;;;;;;;0.73;0.00;;;5.60;99.90;;;;;;5567230;25;20034;-80
2024/04/17 04:38:48;;;;;;;2.28;0.10;;;5.50;99.90;;;;;;5533588;25;19984;-79
2024/04/17 04:41:13;;;;;;;3.40;0.43;;;5.50;99.90;;;;;;5533581;25;19996;-79
2024/04/17 04:43:39;;;;;;;2.30;0.00;;;5.40;99.90;;;;;;5533643;25;20009;-79
2024/04/17 04:46:04;;;;;;;3.85;0.00;;;5.40;99.90;;;;;;5557313;25;20024;-79
2024/04/17 04:48:30;;;;;;;2.08;0.00;;;5.30;99.90;;;;;;5571399;25;20010;-79
2024/04/17 04:50:56;;;;;;;1.92;0.00;;;;;;;;;;5605024;25;20000;-79
2024/04/17 04:53:22;;;;;;;2.30;0.00;;;5.20;99.90;;;;;;5604074;25;20443;-78
2024/04/17 04:55:58;;;;;;;1.98;0.22;;;5.10;99.90;;;;;;5571012;25;20059;-78
2024/04/17 04:58:24;;;;;;;1.95;0.00;;;5.00;99.90;;;;;;5604483;25;19996;-79
2024/04/17 05:00:51;;;;;;;6.43;0.00;;;5.10;99.90;;;;;;5603207;25;19992;-79
2024/04/17 05:03:16;;;;;;;2.50;0.10;;;5.00;99.90;;;;;;5570704;25;19996;-78
2024/04/17 05:05:42;;;;;;;1.55;0.00;;;5.10;99.90;;;;;;5570558;25;20058;-79
2024/04/17 05:08:08;;;;;;;2.03;0.10;;;4.80;99.90;;;;;;5570700;25;19994;-79
2024/04/17 05:10:33;;;;;;;2.17;0.20;;;6.00;99.90;;;;;;5604277;25;20063;-79
2024/04/17 05:12:59;;;;;;;2.25;0.68;;;4.70;99.90;;;;;;5570660;25;19995;-78
2024/04/17 05:15:25;;;;;;;9.02;0.10;;;4.70;99.90;;;;;;5570299;25;20328;-78
2024/04/17 05:17:50;;;;;;;2.88;0.00;;;4.70;99.90;;;;;;5564645;25;19996;-79
2024/04/17 05:20:16;;;;;;;8.93;0.52;;;4.60;99.90;;;;;;5533004;25;20321;-79
2024/04/17 05:22:41;;;;;;;2.08;0.28;;;4.60;99.90;;;;;;5532999;25;20034;-79
2024/04/17 05:25:07;;;;;;;1.75;0.00;;;;;;;;;;5532953;25;20004;-79
2024/04/17 05:27:33;;;;;;;3.00;0.15;;;4.60;99.90;;;;;;5532131;25;19999;-79
2024/04/17 05:29:59;;;;;;;5.88;0.08;;;5.20;99.90;;;;;;5574727;25;20017;-79
2024/04/17 05:32:25;;;;;;;3.92;0.00;;;;;;;;;;5572109;21;20009;-79
2024/04/17 05:34:52;;;;;;;5.82;0.73;;;;;;;;;;5536621;25;19989;-78
2024/04/17 05:37:18;;;;;;;3.75;0.10;;;;;;;;;;5537177;25;20487;-79
2024/04/17 05:39:44;;;;;;;3.08;0.10;;;4.80;99.90;;;;;;5535224;25;19988;-79
2024/04/17 05:42:09;;;;;;;2.70;0.10;;;4.70;99.90;;;;;;5536441;25;20064;-79
2024/04/17 05:44:37;;;;;;;3.13;0.13;;;4.80;99.90;;;;;;5535624;25;19992;-79
2024/04/17 05:47:04;;;;;;;3.60;0.20;;;5.00;99.90;;;;;;5535771;25;20046;-79
2024/04/17 05:49:29;;;;;;;5.82;0.10;;;5.10;99.90;;;;;;5542489;25;20004;-79
2024/04/17 05:51:55;;;;;;;7.07;0.00;;;5.10;99.90;;;;;;5499603;26;19997;-79
2024/04/17 05:54:21;;;;;;;3.38;0.25;;;5.30;99.90;;;;;;5531629;26;19993;-79
2024/04/17 05:56:46;;;;;;;2.40;0.17;;;5.40;99.90;;;;;;5498328;26;19986;-79
2024/04/17 05:59:12;;;;;;;5.82;0.45;;;5.40;99.90;;;;;;5530746;26;20004;-80
2024/04/17 06:01:37;;;;;;;5.90;0.15;;;5.60;99.90;;;;;;5530255;26;20001;-80
2024/04/17 06:04:03;;;;;;;3.97;0.52;;;5.70;99.90;;;;;;5530449;26;20001;-81
2024/04/17 06:06:29;;;;;;;5.93;0.30;;;5.80;99.90;;;;;;5498783;26;20357;-80
2024/04/17 06:08:54;;;;;;;4.53;0.30;;;5.90;99.90;;;;;;5531513;26;19993;-80
2024/04/17 06:11:22;;;;;;;9.38;0.22;;;6.00;99.90;;;;;;5499371;26;20001;-80
2024/04/17 06:13:47;;;;;;;3.88;0.20;;;6.10;99.90;;;;;;5530646;26;20026;-82
2024/04/17 06:16:13;;;;;;;6.65;0.20;;;6.20;99.90;;;;;;5498736;26;19990;-80
2024/04/17 06:18:38;;;;;;;6.88;0.10;;;6.40;99.90;;;;;;5499468;26;20069;-80
2024/04/17 06:21:04;;;;;;;12.32;1.73;;;6.40;99.90;;;;;;5531868;26;19990;-80
2024/04/17 06:23:30;;;;;;;3.08;0.08;;;6.50;99.90;;;;;;5531679;26;20001;-81
2024/04/17 06:25:56;;;;;;;4.68;0.40;;;6.60;99.90;;;;;;5497337;26;20449;-78
2024/04/17 06:28:22;;;;;;;6.70;0.20;;;6.70;99.90;;;;;;5494365;26;19986;-78
2024/04/17 06:30:47;;;;;;;5.68;0.73;;;6.80;99.90;;;;;;5494542;26;20061;-78
2024/04/17 06:33:13;;;;;;;3.03;0.10;;;6.90;99.90;;;;;;5494545;26;20000;-78
2024/04/17 06:35:39;;;;;;;5.05;0.38;;;7.00;99.90;;;;;;5494674;26;20001;-78
2024/04/17 06:38:05;;;;;;;12.05;1.23;;;7.10;99.90;;;;;;5494950;26;19997;-77
2024/04/17 06:40:30;;;;;;;4.35;0.10;;;7.20;99.90;;;;;;5495285;26;20000;-81
2024/04/17 06:42:56;;;;;;;4.57;0.20;;;7.20;99.90;;;;;;5529010;26;19990;-79
2024/04/17 06:45:22;;;;;;;3.63;0.13;;;7.60;99.90;;;;;;5493797;26;19986;-78
2024/04/17 06:47:47;;;;;;;4.70;0.73;;;7.50;99.90;;;;;;5495058;26;20289;-79
2024/04/17 06:50:13;;;;;;;4.65;0.40;;;7.60;99.90;;;;;;5527320;26;20000;-78
2024/04/17 06:52:39;;;;;;;6.65;0.15;;;7.80;99.90;;;;;;5497966;26;20057;-78
2024/04/17 06:55:04;;;;;;;5.72;0.55;;;7.80;99.90;;;;;;5530347;26;19994;-78
2024/04/17 06:57:30;;;;;;;6.40;0.47;;;8.00;99.90;;;;;;5497612;26;20469;-78
2024/04/17 06:59:56;;;;;;;6.85;0.10;;;8.00;99.90;;;;;;5497459;26;20357;-78
2024/04/17 07:02:21;;;;;;;16.20;0.35;;;8.10;99.90;;;;;;5530316;26;19993;-78
2024/04/17 07:04:47;;;;;;;6.28;0.40;;;8.20;99.90;;;;;;5529739;26;20005;-78
2024/04/17 07:07:12;;;;;;;8.45;1.00;;;8.40;99.90;;;;;;5530146;26;20444;-78
2024/04/17 07:09:39;;;;;;;11.05;0.85;;;8.40;99.90;;;;;;5529986;26;20001;-79
2024/04/17 07:12:05;;;;;;;7.00;0.82;;;8.40;99.90;;;;;;5529398;26;19997;-78
2024/04/17 07:14:32;;;;;;;3.40;0.70;;;8.60;99.90;;;;;;5496899;26;20073;-78
2024/04/17 07:16:57;;;;;;;8.63;0.10;;;8.70;99.90;;;;;;5497056;26;19986;-78
2024/04/17 07:19:24;;;;;;;5.35;0.10;;;8.60;99.90;;;;;;5529523;26;20352;-78
2024/04/17 07:21:51;;;;;;;5.95;0.28;;;8.80;99.90;;;;;;5529678;26;19993;-78
2024/04/17 07:24:16;;;;;;;3.80;0.00;;;8.80;99.90;;;;;;5529346;26;20020;-78
2024/04/17 07:26:42;;;;;;;8.00;0.40;;;9.10;99.90;;;;;;5529494;26;20447;-78
2024/04/17 07:29:08;;;;;;;6.75;0.20;;;9.10;99.90;;;;;;5529916;26;19997;-78
2024/04/17 07:31:34;;;;;;;3.55;0.00;;;9.40;99.90;;;;;;5497106;26;19997;-78
2024/04/17 07:33:59;;;;;;;7.10;0.40;;;9.50;99.90;;;;;;5497302;26;20332;-78
2024/04/17 07:36:25;;;;;;;8.68;0.20;;;9.80;99.90;;;;;;5530107;26;20387;-78
2024/04/17 07:38:51;;;;;;;7.03;0.43;;;9.80;99.90;;;;;;5496827;26;20424;-78
2024/04/17 07:41:17;;;;;;;4.88;0.08;;;10.00;99.90;;;;;;5529680;26;19994;-78
2024/04/17 07:43:42;;;;;;;9.27;0.68;;;10.60;99.90;;;;;;5497291;26;20057;-78
2024/04/17 07:46:08;;;;;;;3.95;0.10;;;10.60;99.90;;;;;;5529041;26;19997;-78
2024/04/17 07:48:33;;;;;;;5.03;0.00;;;11.10;99.90;;;;;;5529950;26;19993;-78
2024/04/17 07:50:59;;;;;;;6.45;0.90;;;11.20;99.90;;;;;;5497598;26;20376;-78
2024/04/17 07:53:25;;;;;;;8.82;0.50;;;11.00;99.90;;;;;;5496920;26;19997;-78
2024/04/17 07:55:50;;;;;;;1.55;0.00;;;11.00;99.90;;;;;;5529849;26;19994;-78
2024/04/17 07:58:16;;;;;;;6.55;0.43;;;10.30;99.90;;;;;;5496987;26;20001;-78
2024/04/17 08:00:42;;;;;;;0.85;0.25;;;10.10;99.90;;;;;;5496833;26;20066;-78
2024/04/17 08:03:11;;;;;;;3.08;0.00;;;9.70;99.90;;;;;;5528023;26;20001;-78
2024/04/17 08:05:41;;;;;;;0.55;0.20;;;9.10;99.90;;;;;;5529105;26;20026;-78
2024/04/17 08:08:07;;;;;;;1.00;0.00;;;8.90;99.90;;;;;;5496940;26;20324;-78
2024/04/17 08:10:33;;;;;;;0.63;0.00;;;8.80;99.90;;;;;;5529424;26;19997;-78
2024/04/17 08:13:11;;;;;;;1.60;0.45;;;8.60;99.90;;;;;;5496223;26;20000;-78
2024/04/17 08:15:40;;;;;;;1.80;0.10;;;9.30;99.90;;;;;;5529113;26;19997;-78
2024/04/17 08:18:06;;;;;;;0.00;0.00;;;8.10;99.90;;;;;;5529067;26;20430;-78
2024/04/17 08:20:32;;;;;;;1.00;0.00;;;8.10;99.90;;;;;;5529274;26;20001;-78
2024/04/17 08:22:57;;;;;;;2.97;0.32;;;8.00;99.90;;;;;;5529374;26;20329;-78
2024/04/17 08:25:23;;;;;;;2.53;0.00;;;8.00;99.90;;;;;;5496633;26;19998;-78
2024/04/17 08:27:48;;;;;;;0.47;0.00;;;8.00;99.90;;;;;;5529534;26;20437;-78
2024/04/17 08:30:14;;;;;;;0.65;0.00;;;8.00;99.90;;;;;;5529405;26;20008;-78
2024/04/17 08:32:43;;;;;;;0.47;0.00;;;8.20;99.90;;;;;;5528743;26;19989;-78
2024/04/17 08:35:09;;;;;;;2.00;0.00;;;;;;;;;;5528849;26;19994;-78
2024/04/17 08:37:36;;;;;;;0.00;0.00;;;8.70;99.90;;;;;;5528517;26;20008;-79
2024/04/17 08:40:03;;;;;;;0.15;0.08;;;8.70;99.90;;;;;;5496283;26;19993;-78
2024/04/17 08:42:31;;;;;;;0.10;0.00;;;8.90;99.90;;;;;;5528888;26;20000;-78
2024/04/17 08:45:02;;;;;;;2.08;0.00;;;9.40;99.90;;;;;;5495978;26;19994;-78
2024/04/17 08:47:28;;;;;;;1.02;0.00;;;9.50;99.90;;;;;;5496063;26;19997;-79
2024/04/17 08:49:56;;;;;;;0.63;0.00;;;9.60;99.90;;;;;;5528522;26;20022;-78
2024/04/17 08:52:21;;;;;;;0.28;0.00;;;9.80;99.90;;;;;;5529141;26;20094;-78
2024/04/17 08:54:49;;;;;;;0.00;0.00;;;10.10;99.90;;;;;;5528862;26;20367;-79
2024/04/17 08:57:15;;;;;;;1.25;0.00;;;10.10;99.90;;;;;;5528768;26;20445;-78
2024/04/17 08:59:41;;;;;;;0.43;0.00;;;10.50;99.90;;;;;;5529491;26;20004;-78
2024/04/17 09:02:14;;;;;;;0.32;0.00;;;10.80;99.90;;;;;;5528817;26;19997;-78
2024/04/17 09:04:43;;;;;;;0.55;0.00;;;11.00;99.90;;;;;;5496283;26;20001;-79
2024/04/17 09:07:10;;;;;;;1.55;0.00;;;11.40;99.90;;;;;;5496099;26;20001;-79
2024/04/17 09:09:38;;;;;;;2.72;0.00;;;11.50;99.90;;;;;;5496187;26;19990;-78
2024/04/17 09:12:05;;;;;;;3.53;0.00;;;11.60;99.90;;;;;;5495822;26;19997;-78
2024/04/17 09:14:31;;;;;;;2.67;0.00;;;11.70;99.90;;;;;;5529414;26;20440;-78
2024/04/17 09:16:57;;;;;;;2.22;0.00;;;12.20;99.90;;;;;;5495953;26;20045;-79
2024/04/17 09:19:22;;;;;;;1.98;0.20;;;12.30;99.90;;;;;;5528432;26;20004;-78
2024/04/17 09:21:48;;;;;;;2.25;0.20;;;12.30;99.90;;;;;;5495819;26;19993;-79
2024/04/17 09:24:13;;;;;;;1.15;0.00;;;12.20;99.90;;;;;;5528506;26;19997;-78
2024/04/17 09:26:40;;;;;;;2.03;0.00;;;12.30;99.90;;;;;;5495998;26;20066;-78
2024/04/17 09:29:06;;;;;;;0.95;0.00;;;12.20;99.90;;;;;;5528892;26;20513;-78
2024/04/17 09:31:32;;;;;;;1.15;0.00;;;12.30;99.90;;;;;;5528660;26;20069;-78
2024/04/17 09:34:00;;;;;;;2.38;0.00;;;12.30;99.90;;;;;;5528327;26;20005;-78
2024/04/17 09:36:27;;;;;;;0.65;0.00;;;12.30;99.90;;;;;;5528691;26;20065;-79
2024/04/17 09:38:56;;;;;;;2.20;0.05;;;12.30;99.90;;;;;;5528200;26;19993;-78
2024/04/17 09:41:22;;;;;;;3.83;0.00;;;12.30;99.90;;;;;;5527981;26;19994;-78
2024/04/17 09:43:51;;;;;;;1.65;0.00;;;12.30;99.90;;;;;;5528194;26;20094;-78
2024/04/17 09:46:20;;;;;;;0.98;0.00;;;12.50;99.90;;;;;;5528356;26;20436;-78
2024/04/17 09:48:49;;;;;;;5.25;0.73;;;12.60;99.90;;;;;;5496070;26;19993;-78
2024/04/17 09:51:21;;;;;;;2.90;0.28;;;12.40;99.90;;;;;;5495729;26;20122;-78
2024/04/17 09:54:01;;;;;;;2.67;0.22;;;12.60;99.90;;;;;;5528010;26;20004;-78
2024/04/17 09:56:28;;;;;;;1.88;0.32;;;12.40;99.90;;;;;;5495540;26;20001;-78
2024/04/17 09:58:55;;;;;;;0.30;0.00;;;12.40;99.90;;;;;;5528077;26;20444;-78
2024/04/17 10:01:26;;;;;;;2.22;0.00;;;12.40;99.90;;;;;;5495388;26;20060;-78
2024/04/17 10:03:52;;;;;;;0.10;0.00;;;16.10;99.90;;;;;;5528478;26;19997;-78
2024/04/17 10:06:21;;;;;;;1.00;0.03;;;12.20;99.90;;;;;;5494541;26;19994;-78
2024/04/17 10:08:47;;;;;;;4.55;0.52;;;12.00;99.90;;;;;;5527164;26;19998;-78
2024/04/17 10:11:13;;;;;;;0.13;0.00;;;11.90;99.90;;;;;;5527422;26;20003;-78
2024/04/17 10:13:41;;;;;;;2.05;0.00;;;11.60;99.90;;;;;;5528189;26;20005;-78
2024/04/17 10:16:08;;;;;;;1.48;0.10;;;11.70;99.90;;;;;;5527838;26;19994;-78
2024/04/17 10:18:34;;;;;;;2.50;0.00;;;11.60;99.90;;;;;;5527458;26;19993;-78
2024/04/17 10:21:00;;;;;;;2.45;0.00;;;;;;;;;;5527646;26;19993;-78
2024/04/17 10:23:28;;;;;;;2.00;0.10;;;11.60;99.90;;;;;;5494705;26;20445;-78
2024/04/17 10:25:57;;;;;;;4.50;0.00;;;11.70;99.90;;;;;;5526605;26;20025;-78
2024/04/17 10:28:25;;;;;;;3.22;0.00;;;11.70;99.90;;;;;;5527551;26;20048;-78
2024/04/17 10:30:55;;;;;;;0.95;0.00;;;11.70;99.90;;;;;;5527379;26;20008;-78
2024/04/17 10:33:27;;;;;;;3.70;0.00;;;11.50;99.90;;;;;;5526948;26;20004;-79
2024/04/17 10:35:54;;;;;;;5.30;0.00;;;11.50;99.90;;;;;;5528003;26;20029;-78
2024/04/17 10:38:25;;;;;;;1.10;0.00;;;11.40;99.90;;;;;;5494082;26;20328;-78
2024/04/17 10:40:55;;;;;;;0.52;0.00;;;11.40;99.90;;;;;;5494677;26;20441;-78
2024/04/17 10:43:24;;;;;;;1.35;0.00;;;11.40;99.90;;;;;;5526695;26;19994;-79
2024/04/17 10:46:06;;;;;;;2.28;0.00;;;11.40;99.90;;;;;;5494722;26;20004;-79
2024/04/17 10:48:43;;;;;;;0.28;0.00;;;11.30;99.90;;;;;;5526743;26;20025;-79
2024/04/17 10:51:09;;;;;;;1.45;0.00;;;10.90;99.90;;;;;;5494115;26;20005;-78
2024/04/17 10:53:36;;;;;;;2.83;0.00;;;10.00;99.90;;;;;;5526621;26;20001;-78
2024/04/17 10:56:04;;;;;;;0.75;0.00;;;10.60;99.90;;;;;;5526297;26;20003;-78
2024/04/17 10:58:32;;;;;;;0.90;0.00;;;8.70;99.90;;;;;;5526160;26;20008;-79
2024/04/17 11:01:01;;;;;;;0.77;0.00;;;8.60;99.90;;;;;;5526104;26;19997;-78
2024/04/17 11:03:27;;;;;;;3.50;0.00;;;8.10;99.90;;;;;;5493547;26;19993;-78
2024/04/17 11:05:53;;;;;;;1.23;0.00;;;8.10;99.90;;;;;;5526340;26;19998;-78
2024/04/17 11:08:19;;;;;;;2.47;0.00;;;7.80;99.90;;;;;;5494357;26;20070;-79
2024/04/17 11:10:46;;;;;;;1.85;0.00;;;7.60;99.90;;;;;;5529424;26;19997;-79
2024/04/17 11:13:21;;;;;;;0.57;0.22;;;7.60;99.90;;;;;;5529746;26;20001;-79
2024/04/17 11:15:47;;;;;;;0.00;0.00;;;7.30;99.90;;;;;;5528723;26;20004;-78
2024/04/17 11:18:13;;;;;;;1.02;0.00;;;7.10;99.90;;;;;;5495402;26;20444;-78
2024/04/17 11:20:39;;;;;;;0.52;0.00;;;7.00;99.90;;;;;;5528556;26;20038;-78
2024/04/17 11:23:09;;;;;;;1.48;0.00;;;6.80;99.90;;;;;;5529780;26;20022;-79
2024/04/17 11:25:40;;;;;;;0.55;0.00;;;6.70;99.90;;;;;;5497958;26;20008;-79
2024/04/17 11:28:12;;;;;;;0.20;0.00;;;6.60;99.90;;;;;;5529979;26;20066;-79
2024/04/17 11:30:46;;;;;;;2.20;0.00;;;6.50;99.90;;;;;;5497426;26;20008;-78
2024/04/17 11:33:11;;;;;;;2.95;0.00;;;6.50;99.90;;;;;;5526329;26;19994;-78
2024/04/17 11:35:37;;;;;;;1.08;0.00;;;6.30;99.90;;;;;;5526477;26;20005;-78
2024/04/17 11:38:03;;;;;;;0.00;0.00;;;6.20;99.90;;;;;;5527925;26;19997;-79
2024/04/17 11:40:29;;;;;;;0.30;0.10;;;6.20;99.90;;;;;;5530583;26;20317;-78
2024/04/17 11:42:54;;;;;;;1.17;0.00;;;6.10;99.90;;;;;;5530439;26;20008;-78
2024/04/17 11:45:20;;;;;;;3.35;0.00;;;8.70;99.90;;;;;;5499051;26;20000;-79
2024/04/17 11:47:46;;;;;;;1.75;0.10;;;6.10;99.90;;;;;;5498615;26;20312;-79
2024/04/17 11:50:11;;;;;;;0.10;0.00;;;6.10;99.90;;;;;;5499191;26;19998;-79
2024/04/17 11:52:37;;;;;;;1.35;0.00;;;6.00;99.90;;;;;;5534921;26;20453;-79
2024/04/17 11:55:03;;;;;;;0.10;0.00;;;6.00;99.90;;;;;;5531441;26;20005;-79
2024/04/17 11:57:29;;;;;;;1.17;0.00;;;6.00;99.90;;;;;;5530964;26;20428;-80
2024/04/17 11:59:56;;;;;;;0.40;0.00;;;6.10;99.90;;;;;;5529864;26;19994;-79
2024/04/17 12:02:21;;;;;;;0.05;0.00;;;6.00;99.90;;;;;;5498564;26;20349;-79
2024/04/17 12:04:49;;;;;;;0.20;0.00;;;6.10;99.90;;;;;;5532547;26;19997;-79
2024/04/17 12:07:14;;;;;;;0.05;0.00;;;6.10;99.90;;;;;;5501039;26;19997;-79
2024/04/17 12:09:42;;;;;;;0.00;0.00;;;6.30;99.90;;;;;;5534724;26;20000;-79
2024/04/17 12:12:08;;;;;;;0.25;0.00;;;6.10;99.90;;;;;;5532757;26;20006;-79
2024/04/17 12:14:33;;;;;;;0.73;0.00;;;6.10;99.90;;;;;;5532460;26;19997;-79
2024/04/17 12:16:59;;;;;;;1.38;0.25;;;6.20;99.90;;;;;;5533764;26;19997;-79
2024/04/17 12:19:25;;;;;;;0.08;0.00;;;6.20;99.90;;;;;;5531106;26;20007;-79
2024/04/17 12:21:51;;;;;;;0.00;0.00;;;6.30;99.90;;;;;;5497221;26;19997;-79
2024/04/17 12:24:19;;;;;;;2.05;0.10;;;6.30;99.90;;;;;;5530526;26;20012;-79
2024/04/17 12:26:50;;;;;;;0.70;0.00;;;6.70;99.90;;;;;;5497209;26;20344;-79
2024/04/17 12:29:16;;;;;;;1.25;0.32;;;6.80;99.90;;;;;;5530748;26;20037;-78
2024/04/17 12:31:42;;;;;;;0.70;0.00;;;7.00;99.90;;;;;;5496870;26;20061;-79
2024/04/17 12:34:07;;;;;;;0.00;0.00;;;7.50;99.90;;;;;;5530167;26;20010;-79
2024/04/17 12:36:34;;;;;;;0.10;0.00;;;7.70;99.90;;;;;;5497580;26;20332;-79
2024/04/17 12:39:00;;;;;;;2.45;0.10;;;8.30;99.90;;;;;;5530503;26;20345;-79
2024/04/17 12:41:25;;;;;;;0.47;0.00;;;8.30;99.90;;;;;;5496216;26;20001;-79
2024/04/17 12:43:51;;;;;;;0.00;0.00;;;8.80;99.90;;;;;;5529060;26;20009;-79
2024/04/17 12:46:16;;;;;;;0.15;0.00;;;9.00;99.90;;;;;;5496739;26;20444;-79
2024/04/17 12:48:42;;;;;;;0.00;0.00;;;9.40;99.90;;;;;;5528330;26;20386;-79
2024/04/17 12:51:08;;;;;;;0.28;0.00;;;9.70;99.90;;;;;;5529041;26;20065;-79
2024/04/17 12:53:33;;;;;;;0.98;0.03;;;10.10;99.90;;;;;;5528695;26;19993;-79